Terminal Aerodrome Forecast
Issued by NWS

Home | Current Version | Previous Version | Text Only | Print | Product List | Glossary On
Versions: 1 2 3 4 5 6 7 8 9 10 11 12
651
FTUS42 TJSJ 231121
TAFNCM
TAF
TNCM 231121Z 2312/2412 10008KT P6SM VCSH SCT018 BKN040 BKN250
      TEMPO 2312/2314 VRB12KT -SHRA BKN018
     FM231400 08012KT P6SM FEW022 SCT050 BKN250
     FM231800 10015KT P6SM VCSH SCT022 BKN040
     FM232300 08008KT P6SM SCT018 SCT040=

USA.gov is the U.S. government's official web portal to all federal, state and local government web resources and services.